Aérodrome :
LOGIN :

S'inscrire | Disclaimer

   EN    FR    IT 

 










Légende :    VFR   VFR Marginal   IFR   IFR Intensif   IFR Très Intensif
Visi : 
Plafond : 
>= 8 km
>= 3000ft
5 à 8 km
1000 à 3000 ft
1500m à 5 km
500 à 1000 ft
800 à 1500m
200 à 500 ft
< 800m
< 200 ft
Symboles :   Orages  Brouillard  Fortes neiges  Fortes précipitations  Vent > 20 kt
SIGMETs :   Divers  Orages  Givrage  Turbulence  Onde Orograph.  Cendres Volcan.






- Altitude de l'aérodrome : 1416 ft
- Code IATA : ZRH


LSZH - Zurich

DERNIER METAR :
  • 160950Z 08011KT 040V110 9999 FEW040 07/M03 Q1021 NOSIG

METARs EXPIRÉS :
  • 160920Z 05011KT 020V080 9999 FEW035 05/M04 Q1022 NOSIG
  • 160850Z 06011KT 020V090 9999 FEW035 05/M04 Q1022 NOSIG
  • 160820Z 05010KT 020V080 9999 FEW030 05/M03 Q1022 NOSIG
  • 160750Z 04009KT 9999 FEW020 04/M03 Q1022 NOSIG
  • 160720Z 06008KT 010V100 CAVOK 03/M04 Q1022 NOSIG

TAF TAF LSZH
Valide du 16 à 09h jusqu'au 17 à 15h UTC


160825Z 1609/1715 05012KT 9999 FEW035 TX10/1615Z TNM01/1706Z TX09/1715Z
PROB40
TEMPO 1611/1616 06015G25KT
BECMG 1616/1618 CAVOK
BECMG 1619/1622 04006KT
BECMG 1700/1703 9999 SCT012
PROB40 1701/1709 9999 BKN010
ATIS : +41 43 816 2295 (DEP) +41 43 816 2294 (ARR)



MET'MAP, la Météo Aéronautique d'un coup d'oeil ! - Copyright ORBIFLY Décembre 2007 - Disclaimer

ORBIFLY MET'MAP TEAM :

Programmation & Développement : Alexandra Zaïnal
Sur une idée originale de : Baudouin d'Aumeries
Assistance à la programmation : Marc-Olivier Méhu
Soutien technique & logistique : Manuel Goepfert

Contact : metmap@orbifly.com




SOURCES & CREDITS :

   NOAA